sensor_id;sensor_type;location;lat;lon;timestamp;pressure;altitude;pressure_sealevel;temperature
7830;BMP180;3960;51.86894000;5.39848000;2023-03-01T00:01:10;103226.47;;;-0.36
7830;BMP180;3960;51.86894000;5.39848000;2023-03-01T00:03:36;103228.38;;;-0.36
7830;BMP180;3960;51.86894000;5.39848000;2023-03-01T00:06:02;103214.53;;;-0.38
7830;BMP180;3960;51.86894000;5.39848000;2023-03-01T00:08:29;103215.88;;;-0.41
7830;BMP180;3960;51.86894000;5.39848000;2023-03-01T00:13:32;103208.97;;;-0.47
7830;BMP180;3960;51.86894000;5.39848000;2023-03-01T00:15:57;103214.31;;;-0.47
7830;BMP180;3960;51.86894000;5.39848000;2023-03-01T00:18:22;103218.06;;;-0.53
7830;BMP180;3960;51.86894000;5.39848000;2023-03-01T00:20:55;103220.16;;;-0.50
7830;BMP180;3960;51.86894000;5.39848000;2023-03-01T00:23:21;103217.53;;;-0.55
7830;BMP180;3960;51.86894000;5.39848000;2023-03-01T00:25:47;103216.22;;;-0.57
7830;BMP180;3960;51.86894000;5.39848000;2023-03-01T00:28:13;103221.78;;;-0.54
7830;BMP180;3960;51.86894000;5.39848000;2023-03-01T00:30:39;103219.38;;;-0.55
7830;BMP180;3960;51.86894000;5.39848000;2023-03-01T00:33:04;103209.81;;;-0.61
7830;BMP180;3960;51.86894000;5.39848000;2023-03-01T00:35:32;103215.41;;;-0.58
7830;BMP180;3960;51.86894000;5.39848000;2023-03-01T00:37:57;103201.06;;;-0.62
7830;BMP180;3960;51.86894000;5.39848000;2023-03-01T00:40:27;103212.72;;;-0.58
7830;BMP180;3960;51.86894000;5.39848000;2023-03-01T00:42:53;103209.28;;;-0.58
7830;BMP180;3960;51.86894000;5.39848000;2023-03-01T00:45:18;103205.81;;;-0.59
7830;BMP180;3960;51.86894000;5.39848000;2023-03-01T00:47:44;103211.94;;;-0.58
7830;BMP180;3960;51.86894000;5.39848000;2023-03-01T00:50:10;103220.47;;;-0.61
7830;BMP180;3960;51.86894000;5.39848000;2023-03-01T00:52:35;103207.19;;;-0.66
7830;BMP180;3960;51.86894000;5.39848000;2023-03-01T00:55:01;103208.81;;;-0.70
7830;BMP180;3960;51.86894000;5.39848000;2023-03-01T00:57:26;103214.16;;;-0.75
7830;BMP180;3960;51.86894000;5.39848000;2023-03-01T00:59:51;103210.97;;;-0.82
7830;BMP180;3960;51.86894000;5.39848000;2023-03-01T01:02:19;103209.91;;;-0.86
7830;BMP180;3960;51.86894000;5.39848000;2023-03-01T01:04:45;103203.84;;;-0.91
7830;BMP180;3960;51.86894000;5.39848000;2023-03-01T01:07:11;103203.28;;;-0.93
7830;BMP180;3960;51.86894000;5.39848000;2023-03-01T01:09:36;103192.66;;;-1.03
7830;BMP180;3960;51.86894000;5.39848000;2023-03-01T01:12:02;103191.09;;;-0.99
7830;BMP180;3960;51.86894000;5.39848000;2023-03-01T01:14:28;103193.50;;;-1.03
7830;BMP180;3960;51.86894000;5.39848000;2023-03-01T01:16:53;103195.88;;;-1.01
7830;BMP180;3960;51.86894000;5.39848000;2023-03-01T01:19:19;103186.56;;;-1.04
7830;BMP180;3960;51.86894000;5.39848000;2023-03-01T01:21:44;103163.97;;;-1.16
7830;BMP180;3960;51.86894000;5.39848000;2023-03-01T01:24:10;103186.28;;;-1.02
7830;BMP180;3960;51.86894000;5.39848000;2023-03-01T01:26:36;103174.31;;;-1.00
7830;BMP180;3960;51.86894000;5.39848000;2023-03-01T01:29:03;103172.47;;;-0.99
7830;BMP180;3960;51.86894000;5.39848000;2023-03-01T01:31:29;103172.19;;;-0.98
7830;BMP180;3960;51.86894000;5.39848000;2023-03-01T01:33:55;103166.31;;;-1.00
7830;BMP180;3960;51.86894000;5.39848000;2023-03-01T01:36:21;103160.25;;;-1.05
7830;BMP180;3960;51.86894000;5.39848000;2023-03-01T01:38:46;103153.59;;;-1.08
7830;BMP180;3960;51.86894000;5.39848000;2023-03-01T01:41:12;103178.03;;;-1.01
7830;BMP180;3960;51.86894000;5.39848000;2023-03-01T01:43:47;103159.69;;;-1.02
7830;BMP180;3960;51.86894000;5.39848000;2023-03-01T01:46:24;103171.38;;;-1.03
7830;BMP180;3960;51.86894000;5.39848000;2023-03-01T01:48:57;103153.84;;;-1.04
7830;BMP180;3960;51.86894000;5.39848000;2023-03-01T01:51:26;103154.13;;;-1.06
7830;BMP180;3960;51.86894000;5.39848000;2023-03-01T01:53:58;103152.78;;;-1.03
7830;BMP180;3960;51.86894000;5.39848000;2023-03-01T01:56:26;103153.06;;;-1.05
7830;BMP180;3960;51.86894000;5.39848000;2023-03-01T01:58:54;103154.66;;;-1.04
7830;BMP180;3960;51.86894000;5.39848000;2023-03-01T02:01:20;103149.31;;;-1.04
7830;BMP180;3960;51.86894000;5.39848000;2023-03-01T02:03:46;103146.94;;;-1.05
7830;BMP180;3960;51.86894000;5.39848000;2023-03-01T02:06:18;103153.59;;;-1.03
7830;BMP180;3960;51.86894000;5.39848000;2023-03-01T02:08:45;103158.09;;;-1.03
7830;BMP180;3960;51.86894000;5.39848000;2023-03-01T02:11:13;103157.31;;;-1.04
7830;BMP180;3960;51.86894000;5.39848000;2023-03-01T02:13:40;103139.22;;;-1.07
7830;BMP180;3960;51.86894000;5.39848000;2023-03-01T02:16:09;103129.16;;;-1.20
7830;BMP180;3960;51.86894000;5.39848000;2023-03-01T02:18:35;103152.50;;;-1.07
7830;BMP180;3960;51.86894000;5.39848000;2023-03-01T02:21:30;103143.22;;;-1.09
7830;BMP180;3960;51.86894000;5.39848000;2023-03-01T02:24:06;103145.09;;;-1.10
7830;BMP180;3960;51.86894000;5.39848000;2023-03-01T02:26:41;103138.47;;;-1.12
7830;BMP180;3960;51.86894000;5.39848000;2023-03-01T02:29:07;103124.41;;;-1.23
7830;BMP180;3960;51.86894000;5.39848000;2023-03-01T02:31:33;103139.78;;;-1.10
7830;BMP180;3960;51.86894000;5.39848000;2023-03-01T02:34:13;103144.03;;;-1.09
7830;BMP180;3960;51.86894000;5.39848000;2023-03-01T02:36:50;103138.44;;;-1.07
7830;BMP180;3960;51.86894000;5.39848000;2023-03-01T02:39:23;103142.69;;;-1.06
7830;BMP180;3960;51.86894000;5.39848000;2023-03-01T02:41:52;103137.91;;;-1.09
7830;BMP180;3960;51.86894000;5.39848000;2023-03-01T02:44:18;103133.91;;;-1.12
7830;BMP180;3960;51.86894000;5.39848000;2023-03-01T02:46:47;103129.66;;;-1.13
7830;BMP180;3960;51.86894000;5.39848000;2023-03-01T02:49:27;103138.19;;;-1.11
7830;BMP180;3960;51.86894000;5.39848000;2023-03-01T02:52:17;103134.47;;;-1.10
7830;BMP180;3960;51.86894000;5.39848000;2023-03-01T02:54:50;103129.94;;;-1.14
7830;BMP180;3960;51.86894000;5.39848000;2023-03-01T02:57:17;103125.41;;;-1.14
7830;BMP180;3960;51.86894000;5.39848000;2023-03-01T02:59:43;103121.19;;;-1.15
7830;BMP180;3960;51.86894000;5.39848000;2023-03-01T03:02:23;103112.13;;;-1.19
7830;BMP180;3960;51.86894000;5.39848000;2023-03-01T03:05:22;103118.28;;;-1.18
7830;BMP180;3960;51.86894000;5.39848000;2023-03-01T03:07:49;103116.41;;;-1.18
7830;BMP180;3960;51.86894000;5.39848000;2023-03-01T03:10:20;103118.53;;;-1.20
7830;BMP180;3960;51.86894000;5.39848000;2023-03-01T03:12:57;103124.38;;;-1.18
7830;BMP180;3960;51.86894000;5.39848000;2023-03-01T03:15:24;103120.13;;;-1.19
7830;BMP180;3960;51.86894000;5.39848000;2023-03-01T03:17:51;103127.81;;;-1.17
7830;BMP180;3960;51.86894000;5.39848000;2023-03-01T03:20:19;103110.28;;;-1.23
7830;BMP180;3960;51.86894000;5.39848000;2023-03-01T03:22:46;103121.97;;;-1.14
7830;BMP180;3960;51.86894000;5.39848000;2023-03-01T03:25:12;103110.00;;;-1.17
7830;BMP180;3960;51.86894000;5.39848000;2023-03-01T03:27:38;103118.78;;;-1.11
7830;BMP180;3960;51.86894000;5.39848000;2023-03-01T03:30:06;103108.66;;;-1.14
7830;BMP180;3960;51.86894000;5.39848000;2023-03-01T03:32:40;103114.25;;;-1.11
7830;BMP180;3960;51.86894000;5.39848000;2023-03-01T03:35:07;103117.69;;;-1.10
7830;BMP180;3960;51.86894000;5.39848000;2023-03-01T03:37:39;103106.53;;;-1.12
7830;BMP180;3960;51.86894000;5.39848000;2023-03-01T03:40:24;103101.47;;;-1.14
7830;BMP180;3960;51.86894000;5.39848000;2023-03-01T03:42:49;103109.22;;;-1.12
7830;BMP180;3960;51.86894000;5.39848000;2023-03-01T03:45:18;103107.59;;;-1.13
7830;BMP180;3960;51.86894000;5.39848000;2023-03-01T03:47:44;103108.94;;;-1.16
7830;BMP180;3960;51.86894000;5.39848000;2023-03-01T03:50:11;103085.31;;;-1.27
7830;BMP180;3960;51.86894000;5.39848000;2023-03-01T03:52:36;103093.25;;;-1.22
7830;BMP180;3960;51.86894000;5.39848000;2023-03-01T03:55:01;103104.69;;;-1.17
7830;BMP180;3960;51.86894000;5.39848000;2023-03-01T03:57:27;103104.16;;;-1.19
7830;BMP180;3960;51.86894000;5.39848000;2023-03-01T03:59:52;103101.00;;;-1.21
7830;BMP180;3960;51.86894000;5.39848000;2023-03-01T04:02:17;103087.19;;;-1.33
7830;BMP180;3960;51.86894000;5.39848000;2023-03-01T04:04:50;103099.66;;;-1.23
7830;BMP180;3960;51.86894000;5.39848000;2023-03-01T04:07:16;103095.16;;;-1.23
7830;BMP180;3960;51.86894000;5.39848000;2023-03-01T04:09:42;103091.16;;;-1.25
7830;BMP180;3960;51.86894000;5.39848000;2023-03-01T04:12:08;103091.41;;;-1.27
7830;BMP180;3960;51.86894000;5.39848000;2023-03-01T04:14:33;103094.63;;;-1.30
7830;BMP180;3960;51.86894000;5.39848000;2023-03-01T04:16:58;103084.00;;;-1.30
7830;BMP180;3960;51.86894000;5.39848000;2023-03-01T04:19:24;103084.81;;;-1.34
7830;BMP180;3960;51.86894000;5.39848000;2023-03-01T04:21:49;103086.94;;;-1.36
7830;BMP180;3960;51.86894000;5.39848000;2023-03-01T04:24:15;103073.16;;;-1.48
7830;BMP180;3960;51.86894000;5.39848000;2023-03-01T04:26:40;103093.09;;;-1.41
7830;BMP180;3960;51.86894000;5.39848000;2023-03-01T04:29:05;103090.16;;;-1.44
7830;BMP180;3960;51.86894000;5.39848000;2023-03-01T04:31:31;103100.53;;;-1.47
7830;BMP180;3960;51.86894000;5.39848000;2023-03-01T04:33:56;103075.31;;;-1.50
7830;BMP180;3960;51.86894000;5.39848000;2023-03-01T04:36:25;103092.03;;;-1.49
7830;BMP180;3960;51.86894000;5.39848000;2023-03-01T04:38:50;103075.03;;;-1.58
7830;BMP180;3960;51.86894000;5.39848000;2023-03-01T04:41:19;103068.13;;;-1.64
7830;BMP180;3960;51.86894000;5.39848000;2023-03-01T04:43:45;103082.75;;;-1.52
7830;BMP180;3960;51.86894000;5.39848000;2023-03-01T04:46:12;103080.59;;;-1.55
7830;BMP180;3960;51.86894000;5.39848000;2023-03-01T04:48:39;103078.47;;;-1.53
7830;BMP180;3960;51.86894000;5.39848000;2023-03-01T04:51:06;103066.03;;;-1.62
7830;BMP180;3960;51.86894000;5.39848000;2023-03-01T04:53:32;103081.13;;;-1.53
7830;BMP180;3960;51.86894000;5.39848000;2023-03-01T04:55:58;103083.25;;;-1.55
7830;BMP180;3960;51.86894000;5.39848000;2023-03-01T04:58:25;103078.47;;;-1.53
7830;BMP180;3960;51.86894000;5.39848000;2023-03-01T05:00:51;103075.56;;;-1.56
7830;BMP180;3960;51.86894000;5.39848000;2023-03-01T05:03:17;103073.19;;;-1.58
7830;BMP180;3960;51.86894000;5.39848000;2023-03-01T05:05:44;103073.97;;;-1.57
7830;BMP180;3960;51.86894000;5.39848000;2023-03-01T05:08:10;103066.00;;;-1.57
7830;BMP180;3960;51.86894000;5.39848000;2023-03-01T05:10:48;103064.16;;;-1.57
7830;BMP180;3960;51.86894000;5.39848000;2023-03-01T05:13:14;103051.94;;;-1.58
7830;BMP180;3960;51.86894000;5.39848000;2023-03-01T05:15:53;103050.34;;;-1.59
7830;BMP180;3960;51.86894000;5.39848000;2023-03-01T05:18:18;103036.81;;;-1.67
7830;BMP180;3960;51.86894000;5.39848000;2023-03-01T05:20:44;103033.31;;;-1.63
7830;BMP180;3960;51.86894000;5.39848000;2023-03-01T05:23:09;103037.06;;;-1.64
7830;BMP180;3960;51.86894000;5.39848000;2023-03-01T05:25:35;103029.88;;;-1.63
7830;BMP180;3960;51.86894000;5.39848000;2023-03-01T05:28:06;103021.66;;;-1.67
7830;BMP180;3960;51.86894000;5.39848000;2023-03-01T05:30:33;103025.38;;;-1.68
7830;BMP180;3960;51.86894000;5.39848000;2023-03-01T05:32:59;103020.63;;;-1.71
7830;BMP180;3960;51.86894000;5.39848000;2023-03-01T05:35:24;103011.03;;;-1.72
7830;BMP180;3960;51.86894000;5.39848000;2023-03-01T05:37:50;103011.81;;;-1.71
7830;BMP180;3960;51.86894000;5.39848000;2023-03-01T05:40:20;102994.59;;;-1.79
7830;BMP180;3960;51.86894000;5.39848000;2023-03-01T05:42:49;103019.53;;;-1.70
7830;BMP180;3960;51.86894000;5.39848000;2023-03-01T05:45:15;103008.09;;;-1.70
7830;BMP180;3960;51.86894000;5.39848000;2023-03-01T05:47:42;103002.25;;;-1.72
7830;BMP180;3960;51.86894000;5.39848000;2023-03-01T05:52:48;102969.69;;;-1.98
7830;BMP180;3960;51.86894000;5.39848000;2023-03-01T05:55:18;103000.97;;;-1.80
7830;BMP180;3960;51.86894000;5.39848000;2023-03-01T05:57:44;102969.94;;;-1.94
7830;BMP180;3960;51.86894000;5.39848000;2023-03-01T06:00:10;102994.34;;;-1.82
7830;BMP180;3960;51.86894000;5.39848000;2023-03-01T06:02:35;102998.06;;;-1.83
7830;BMP180;3960;51.86894000;5.39848000;2023-03-01T06:05:01;102997.25;;;-1.84
7830;BMP180;3960;51.86894000;5.39848000;2023-03-01T06:07:27;103000.16;;;-1.85
7830;BMP180;3960;51.86894000;5.39848000;2023-03-01T06:09:52;102998.59;;;-1.86
7830;BMP180;3960;51.86894000;5.39848000;2023-03-01T06:12:18;103001.25;;;-1.86
7830;BMP180;3960;51.86894000;5.39848000;2023-03-01T06:14:45;102997.50;;;-1.85
7830;BMP180;3960;51.86894000;5.39848000;2023-03-01T06:17:10;103002.59;;;-1.84
7830;BMP180;3960;51.86894000;5.39848000;2023-03-01T06:19:36;102999.66;;;-1.87
7830;BMP180;3960;51.86894000;5.39848000;2023-03-01T06:22:01;103007.63;;;-1.87
7830;BMP180;3960;51.86894000;5.39848000;2023-03-01T06:24:26;103014.00;;;-1.88
7830;BMP180;3960;51.86894000;5.39848000;2023-03-01T06:26:53;103016.94;;;-1.90
7830;BMP180;3960;51.86894000;5.39848000;2023-03-01T06:29:19;103012.16;;;-1.98
7830;BMP180;3960;51.86894000;5.39848000;2023-03-01T06:31:44;103021.47;;;-2.00
7830;BMP180;3960;51.86894000;5.39848000;2023-03-01T06:34:11;103022.53;;;-2.06
7830;BMP180;3960;51.86894000;5.39848000;2023-03-01T06:36:38;103007.41;;;-2.16
7830;BMP180;3960;51.86894000;5.39848000;2023-03-01T06:39:05;103020.16;;;-2.13
7830;BMP180;3960;51.86894000;5.39848000;2023-03-01T06:41:31;103014.84;;;-2.13
7830;BMP180;3960;51.86894000;5.39848000;2023-03-01T06:43:56;103007.41;;;-2.16
7830;BMP180;3960;51.86894000;5.39848000;2023-03-01T06:46:21;103004.75;;;-2.20
7830;BMP180;3960;51.86894000;5.39848000;2023-03-01T06:48:47;103009.56;;;-2.22
7830;BMP180;3960;51.86894000;5.39848000;2023-03-01T06:51:12;103010.59;;;-2.23
7830;BMP180;3960;51.86894000;5.39848000;2023-03-01T06:53:37;103008.75;;;-2.28
7830;BMP180;3960;51.86894000;5.39848000;2023-03-01T06:56:03;103018.28;;;-2.22
7830;BMP180;3960;51.86894000;5.39848000;2023-03-01T06:58:28;103024.16;;;-2.20
7830;BMP180;3960;51.86894000;5.39848000;2023-03-01T07:00:53;103023.09;;;-2.19
7830;BMP180;3960;51.86894000;5.39848000;2023-03-01T07:03:19;103017.22;;;-2.16
7830;BMP180;3960;51.86894000;5.39848000;2023-03-01T07:05:44;103014.06;;;-2.13
7830;BMP180;3960;51.86894000;5.39848000;2023-03-01T07:08:10;103011.13;;;-2.12
7830;BMP180;3960;51.86894000;5.39848000;2023-03-01T07:10:35;103017.75;;;-2.04
7830;BMP180;3960;51.86894000;5.39848000;2023-03-01T07:13:00;103036.84;;;-1.92
7830;BMP180;3960;51.86894000;5.39848000;2023-03-01T07:15:26;103022.41;;;-1.56
7830;BMP180;3960;51.86894000;5.39848000;2023-03-01T07:17:52;103025.66;;;-0.63
7830;BMP180;3960;51.86894000;5.39848000;2023-03-01T07:20:18;103025.38;;;0.52
7830;BMP180;3960;51.86894000;5.39848000;2023-03-01T07:22:44;103024.13;;;1.59
7830;BMP180;3960;51.86894000;5.39848000;2023-03-01T07:25:10;103033.09;;;2.40
7830;BMP180;3960;51.86894000;5.39848000;2023-03-01T07:27:36;103023.16;;;3.16
7830;BMP180;3960;51.86894000;5.39848000;2023-03-01T07:30:02;103026.34;;;3.84
7830;BMP180;3960;51.86894000;5.39848000;2023-03-01T07:32:27;103031.84;;;4.39
7830;BMP180;3960;51.86894000;5.39848000;2023-03-01T07:34:52;103030.41;;;4.89
7830;BMP180;3960;51.86894000;5.39848000;2023-03-01T07:37:18;103026.97;;;5.22
7830;BMP180;3960;51.86894000;5.39848000;2023-03-01T07:39:43;103021.63;;;5.31
7830;BMP180;3960;51.86894000;5.39848000;2023-03-01T07:42:08;103029.78;;;5.68
7830;BMP180;3960;51.86894000;5.39848000;2023-03-01T07:44:34;103026.47;;;5.96
7830;BMP180;3960;51.86894000;5.39848000;2023-03-01T07:47:03;103029.38;;;6.20
7830;BMP180;3960;51.86894000;5.39848000;2023-03-01T07:49:28;103030.25;;;6.41
7830;BMP180;3960;51.86894000;5.39848000;2023-03-01T07:51:53;103036.84;;;6.52
7830;BMP180;3960;51.86894000;5.39848000;2023-03-01T07:54:19;103044.81;;;6.69
7830;BMP180;3960;51.86894000;5.39848000;2023-03-01T07:56:44;103044.13;;;6.80
7830;BMP180;3960;51.86894000;5.39848000;2023-03-01T07:59:10;103052.50;;;6.87
7830;BMP180;3960;51.86894000;5.39848000;2023-03-01T08:01:35;103039.41;;;6.77
7830;BMP180;3960;51.86894000;5.39848000;2023-03-01T08:04:00;103052.00;;;6.94
7830;BMP180;3960;51.86894000;5.39848000;2023-03-01T08:06:27;103049.94;;;6.91
7830;BMP180;3960;51.86894000;5.39848000;2023-03-01T08:08:52;103054.81;;;6.97
7830;BMP180;3960;51.86894000;5.39848000;2023-03-01T08:11:17;103047.19;;;6.99
7830;BMP180;3960;51.86894000;5.39848000;2023-03-01T08:13:43;103045.09;;;7.05
7830;BMP180;3960;51.86894000;5.39848000;2023-03-01T08:16:13;103047.50;;;6.98
7830;BMP180;3960;51.86894000;5.39848000;2023-03-01T08:18:39;103046.06;;;7.00
7830;BMP180;3960;51.86894000;5.39848000;2023-03-01T08:21:07;103049.22;;;7.02
7830;BMP180;3960;51.86894000;5.39848000;2023-03-01T08:23:33;103021.03;;;7.00
7830;BMP180;3960;51.86894000;5.39848000;2023-03-01T08:28:34;103021.94;;;7.44
7830;BMP180;3960;51.86894000;5.39848000;2023-03-01T08:31:00;103036.75;;;7.71
7830;BMP180;3960;51.86894000;5.39848000;2023-03-01T08:33:26;103039.56;;;7.95
7830;BMP180;3960;51.86894000;5.39848000;2023-03-01T08:35:51;103031.53;;;8.30
7830;BMP180;3960;51.86894000;5.39848000;2023-03-01T08:38:17;103042.03;;;8.56
7830;BMP180;3960;51.86894000;5.39848000;2023-03-01T08:40:42;103029.19;;;8.41
7830;BMP180;3960;51.86894000;5.39848000;2023-03-01T08:43:07;103014.72;;;8.13
7830;BMP180;3960;51.86894000;5.39848000;2023-03-01T08:45:32;103026.94;;;8.43
7830;BMP180;3960;51.86894000;5.39848000;2023-03-01T08:47:58;103026.47;;;8.53
7830;BMP180;3960;51.86894000;5.39848000;2023-03-01T08:50:23;102995.75;;;8.57
7830;BMP180;3960;51.86894000;5.39848000;2023-03-01T08:52:49;103007.69;;;8.80
7830;BMP180;3960;51.86894000;5.39848000;2023-03-01T08:55:15;103012.91;;;9.00
7830;BMP180;3960;51.86894000;5.39848000;2023-03-01T08:57:42;103016.53;;;8.92
7830;BMP180;3960;51.86894000;5.39848000;2023-03-01T09:00:08;103014.53;;;8.89
7830;BMP180;3960;51.86894000;5.39848000;2023-03-01T09:02:34;103008.78;;;8.91
7830;BMP180;3960;51.86894000;5.39848000;2023-03-01T09:04:59;103011.31;;;9.11
7830;BMP180;3960;51.86894000;5.39848000;2023-03-01T09:07:26;103004.00;;;9.12
7830;BMP180;3960;51.86894000;5.39848000;2023-03-01T09:09:53;102994.41;;;9.14
7830;BMP180;3960;51.86894000;5.39848000;2023-03-01T09:12:19;102996.47;;;9.05
7830;BMP180;3960;51.86894000;5.39848000;2023-03-01T09:14:44;102994.78;;;9.01
7830;BMP180;3960;51.86894000;5.39848000;2023-03-01T09:17:10;102986.94;;;9.23
7830;BMP180;3960;51.86894000;5.39848000;2023-03-01T09:19:35;102984.00;;;9.55
7830;BMP180;3960;51.86894000;5.39848000;2023-03-01T09:22:00;102984.06;;;9.43
7830;BMP180;3960;51.86894000;5.39848000;2023-03-01T09:24:25;102975.25;;;9.19
7830;BMP180;3960;51.86894000;5.39848000;2023-03-01T09:26:54;102977.44;;;9.02
7830;BMP180;3960;51.86894000;5.39848000;2023-03-01T09:29:20;102970.50;;;9.16
7830;BMP180;3960;51.86894000;5.39848000;2023-03-01T09:31:46;102964.25;;;9.00
7830;BMP180;3960;51.86894000;5.39848000;2023-03-01T09:34:11;102966.56;;;9.26
7830;BMP180;3960;51.86894000;5.39848000;2023-03-01T09:36:38;102964.66;;;9.42
7830;BMP180;3960;51.86894000;5.39848000;2023-03-01T09:39:04;102968.84;;;9.39
7830;BMP180;3960;51.86894000;5.39848000;2023-03-01T09:41:54;102962.69;;;8.99
7830;BMP180;3960;51.86894000;5.39848000;2023-03-01T09:44:31;102956.94;;;9.01
7830;BMP180;3960;51.86894000;5.39848000;2023-03-01T09:46:59;102936.16;;;8.89
7830;BMP180;3960;51.86894000;5.39848000;2023-03-01T09:49:44;102941.72;;;9.08
7830;BMP180;3960;51.86894000;5.39848000;2023-03-01T09:54:54;102947.53;;;8.83
7830;BMP180;3960;51.86894000;5.39848000;2023-03-01T09:57:26;102947.78;;;8.54
7830;BMP180;3960;51.86894000;5.39848000;2023-03-01T10:10:36;102939.16;;;8.25
7830;BMP180;3960;51.86894000;5.39848000;2023-03-01T10:13:10;102921.81;;;8.14
7830;BMP180;3960;51.86894000;5.39848000;2023-03-01T10:15:53;102938.03;;;8.26
7830;BMP180;3960;51.86894000;5.39848000;2023-03-01T10:18:23;102933.22;;;8.19
7830;BMP180;3960;51.86894000;5.39848000;2023-03-01T10:21:02;102942.09;;;8.32
7830;BMP180;3960;51.86894000;5.39848000;2023-03-01T10:23:31;102928.94;;;8.18
7830;BMP180;3960;51.86894000;5.39848000;2023-03-01T10:29:09;102937.13;;;8.10
7830;BMP180;3960;51.86894000;5.39848000;2023-03-01T10:31:42;102935.31;;;7.90
7830;BMP180;3960;51.86894000;5.39848000;2023-03-01T10:36:48;102924.31;;;7.51
7830;BMP180;3960;51.86894000;5.39848000;2023-03-01T10:41:53;102907.25;;;7.15
7830;BMP180;3960;51.86894000;5.39848000;2023-03-01T10:44:39;102909.13;;;7.02
7830;BMP180;3960;51.86894000;5.39848000;2023-03-01T10:47:05;102896.50;;;6.94
7830;BMP180;3960;51.86894000;5.39848000;2023-03-01T10:49:36;102892.44;;;6.88
7830;BMP180;3960;51.86894000;5.39848000;2023-03-01T10:52:18;102880.09;;;6.67
7830;BMP180;3960;51.86894000;5.39848000;2023-03-01T10:54:55;102900.59;;;6.80
7830;BMP180;3960;51.86894000;5.39848000;2023-03-01T10:57:31;102876.16;;;6.85
7830;BMP180;3960;51.86894000;5.39848000;2023-03-01T11:00:18;102876.31;;;7.00
7830;BMP180;3960;51.86894000;5.39848000;2023-03-01T11:02:47;102894.22;;;7.17
7830;BMP180;3960;51.86894000;5.39848000;2023-03-01T11:05:18;102895.91;;;7.09
7830;BMP180;3960;51.86894000;5.39848000;2023-03-01T11:12:54;102884.81;;;7.22
7830;BMP180;3960;51.86894000;5.39848000;2023-03-01T11:15:30;102875.88;;;7.42
7830;BMP180;3960;51.86894000;5.39848000;2023-03-01T11:17:56;102877.25;;;7.48
7830;BMP180;3960;51.86894000;5.39848000;2023-03-01T11:20:29;102854.31;;;7.42
7830;BMP180;3960;51.86894000;5.39848000;2023-03-01T11:23:05;102852.53;;;7.46
7830;BMP180;3960;51.86894000;5.39848000;2023-03-01T11:25:39;102862.00;;;7.64
7830;BMP180;3960;51.86894000;5.39848000;2023-03-01T11:28:06;102873.25;;;7.78
7830;BMP180;3960;51.86894000;5.39848000;2023-03-01T11:30:41;102863.13;;;7.75
7830;BMP180;3960;51.86894000;5.39848000;2023-03-01T11:38:55;102860.41;;;8.35
7830;BMP180;3960;51.86894000;5.39848000;2023-03-01T11:41:25;102840.75;;;8.34
7830;BMP180;3960;51.86894000;5.39848000;2023-03-01T11:44:01;102848.53;;;8.63
7830;BMP180;3960;51.86894000;5.39848000;2023-03-01T11:46:48;102847.66;;;8.86
7830;BMP180;3960;51.86894000;5.39848000;2023-03-01T11:54:25;102838.34;;;8.99
7830;BMP180;3960;51.86894000;5.39848000;2023-03-01T11:57:01;102852.44;;;9.20
7830;BMP180;3960;51.86894000;5.39848000;2023-03-01T11:59:54;102847.03;;;9.36
7830;BMP180;3960;51.86894000;5.39848000;2023-03-01T12:02:27;102854.88;;;9.25
7830;BMP180;3960;51.86894000;5.39848000;2023-03-01T12:10:53;102850.69;;;9.28
7830;BMP180;3960;51.86894000;5.39848000;2023-03-01T12:21:53;102840.22;;;9.72
7830;BMP180;3960;51.86894000;5.39848000;2023-03-01T12:30:34;102840.59;;;9.55
7830;BMP180;3960;51.86894000;5.39848000;2023-03-01T12:41:59;102822.53;;;9.59
7830;BMP180;3960;51.86894000;5.39848000;2023-03-01T12:49:54;102797.38;;;9.74
7830;BMP180;3960;51.86894000;5.39848000;2023-03-01T13:06:57;102773.78;;;9.90
7830;BMP180;3960;51.86894000;5.39848000;2023-03-01T13:09:37;102766.22;;;9.65
7830;BMP180;3960;51.86894000;5.39848000;2023-03-01T13:12:50;102767.59;;;9.74
7830;BMP180;3960;51.86894000;5.39848000;2023-03-01T13:17:48;102744.63;;;9.34
7830;BMP180;3960;51.86894000;5.39848000;2023-03-01T13:20:16;102744.53;;;9.31
7830;BMP180;3960;51.86894000;5.39848000;2023-03-01T13:22:42;102725.09;;;9.25
7830;BMP180;3960;51.86894000;5.39848000;2023-03-01T13:25:18;102725.44;;;9.24
7830;BMP180;3960;51.86894000;5.39848000;2023-03-01T13:27:46;102716.44;;;9.20
7830;BMP180;3960;51.86894000;5.39848000;2023-03-01T13:35:54;102718.19;;;9.28
7830;BMP180;3960;51.86894000;5.39848000;2023-03-01T13:44:35;102695.34;;;9.25
7830;BMP180;3960;51.86894000;5.39848000;2023-03-01T13:49:47;102698.16;;;9.13
7830;BMP180;3960;51.86894000;5.39848000;2023-03-01T13:54:49;102702.34;;;9.11
7830;BMP180;3960;51.86894000;5.39848000;2023-03-01T13:57:21;102670.78;;;8.99
7830;BMP180;3960;51.86894000;5.39848000;2023-03-01T13:59:47;102686.03;;;9.07
7830;BMP180;3960;51.86894000;5.39848000;2023-03-01T14:02:13;102683.16;;;9.00
7830;BMP180;3960;51.86894000;5.39848000;2023-03-01T14:04:38;102686.81;;;9.08
7830;BMP180;3960;51.86894000;5.39848000;2023-03-01T14:07:20;102684.91;;;9.08
7830;BMP180;3960;51.86894000;5.39848000;2023-03-01T14:09:55;102683.06;;;8.97
7830;BMP180;3960;51.86894000;5.39848000;2023-03-01T14:15:16;102676.44;;;8.79
7830;BMP180;3960;51.86894000;5.39848000;2023-03-01T14:17:55;102668.84;;;8.69
7830;BMP180;3960;51.86894000;5.39848000;2023-03-01T14:20:26;102669.97;;;8.68
7830;BMP180;3960;51.86894000;5.39848000;2023-03-01T14:22:54;102659.78;;;8.62
7830;BMP180;3960;51.86894000;5.39848000;2023-03-01T14:28:14;102649.06;;;8.65
7830;BMP180;3960;51.86894000;5.39848000;2023-03-01T14:30:45;102639.13;;;8.69
7830;BMP180;3960;51.86894000;5.39848000;2023-03-01T14:33:25;102638.00;;;8.70
7830;BMP180;3960;51.86894000;5.39848000;2023-03-01T14:36:11;102632.59;;;8.70
7830;BMP180;3960;51.86894000;5.39848000;2023-03-01T14:38:38;102627.19;;;8.70
7830;BMP180;3960;51.86894000;5.39848000;2023-03-01T14:41:07;102624.31;;;8.78
7830;BMP180;3960;51.86894000;5.39848000;2023-03-01T14:43:33;102628.50;;;8.76